Oneiro — SVA3427 — position and weather

sailwx.info

Track history (hours):
 
Tides and Currents Weather Stations Pressure Air Temp Water Temp Dewpoint Dewpoint Depression Visibility Wind Speed Wind Dir Waves Ship Positions

Oneiro

Last reported at 2015-Jul-06 08:19 UTC. Time now 2015-Jul-06 22:13 UTC.
Position N 37°20' E 023°23'.

Length 53 m; draft 3 m.

Type: Pleasure craft. MMSI: 241024000.

Date/timePositionNaut miles runAvg speedWind from/ knotsBaromVisibWave heightAir tempDewpointWater temp
2015-Jul-06 08:19N 37°20' E 023°23'  
2015-Jul-03 07:32N 37°23' E 023°24'8 6.5
2015-Jul-03 06:23N 37°30' E 023°27'0 0.0
2015-Jul-02 15:09N 37°30' E 023°27'64 5.1
2015-Jul-02 02:34N 37°22' E 024°47'9 8.9
2015-Jul-02 01:33N 37°26' E 024°57'0 0.2
2015-Jul-02 00:33N 37°27' E 024°57'0 0.0
2015-Jul-01 23:33N 37°27' E 024°57'0 0.0
2015-Jul-01 22:33N 37°27' E 024°57'0 0.0
2015-Jul-01 21:33N 37°27' E 024°57'0 0.0
2015-Jul-01 20:33N 37°27' E 024°57'0 0.0
2015-Jul-01 19:33N 37°27' E 024°57'0 0.0
2015-Jul-01 18:32N 37°27' E 024°57'0 0.0
2015-Jul-01 17:34N 37°27' E 024°57'5 5.2
2015-Jul-01 16:33N 37°27' E 025°03'1111.2
2015-Jul-01 15:33N 37°25' E 025°17'3 2.6
2015-Jul-01 14:33N 37°25' E 025°20'0 0.0
2015-Jul-01 13:33N 37°25' E 025°20'0 0.0
2015-Jul-01 12:34N 37°25' E 025°20'0 0.0
2015-Jul-01 11:33N 37°25' E 025°20'0 0.0
2015-Jul-01 10:34N 37°25' E 025°20'0 0.0
2015-Jul-01 09:34N 37°25' E 025°20'2 2.4
2015-Jul-01 08:33N 37°27' E 025°20'0 0.0
2015-Jul-01 07:33N 37°27' E 025°20'0 0.0
2015-Jul-01 06:33N 37°27' E 025°20'0 0.1
2015-Jul-01 05:33N 37°27' E 025°20'0 0.0
2015-Jul-01 04:33N 37°27' E 025°20'0 0.0
2015-Jul-01 03:33N 37°27' E 025°20'0 0.0
2015-Jul-01 02:33N 37°27' E 025°20'0 0.0
2015-Jul-01 01:33N 37°27' E 025°20'0 0.0
2015-Jul-01 00:33N 37°27' E 025°20'0 0.0
2015-Jun-30 23:33N 37°27' E 025°20'0 0.0
2015-Jun-30 22:33N 37°27' E 025°20'0 0.0
2015-Jun-30 21:33N 37°27' E 025°20'0 0.0
2015-Jun-30 20:33N 37°27' E 025°20'0 0.0
2015-Jun-30 19:33N 37°27' E 025°20'0 0.0
2015-Jun-30 18:33N 37°27' E 025°20'0 0.0
2015-Jun-30 17:33N 37°27' E 025°20'1111.1
2015-Jun-30 16:33N 37°29' E 025°06'1514.6
2015-Jun-30 15:32N 37°32' E 024°47'2914.4
2015-Jun-30 13:33N 37°33' E 024°11'1414.3
2015-Jun-30 12:33N 37°39' E 023°55'1313.4
2015-Jun-30 11:33N 37°49' E 023°44'4 3.6
2015-Jun-30 10:33N 37°53' E 023°43'0 0.0
2015-Jun-30 09:33N 37°53' E 023°43'0 0.0
2015-Jun-30 08:33N 37°53' E 023°43'0 0.0
2015-Jun-30 07:33N 37°53' E 023°43'0 0.0
2015-Jun-30 06:33N 37°53' E 023°43'0 0.0
2015-Jun-30 05:33N 37°53' E 023°43'0 0.0
2015-Jun-30 04:33N 37°53' E 023°43'0 0.0
2015-Jun-30 03:33N 37°53' E 023°43'0 0.0
2015-Jun-30 02:33N 37°53' E 023°43'0 0.0
2015-Jun-30 01:33N 37°53' E 023°43'0 0.0
2015-Jun-30 00:33N 37°53' E 023°43'0 0.0
2015-Jun-29 23:33N 37°53' E 023°43'0 0.0
2015-Jun-29 22:33N 37°53' E 023°43'0 0.0
2015-Jun-29 21:33N 37°53' E 023°43'0 0.0
2015-Jun-29 20:33N 37°53' E 023°43'0 0.0
2015-Jun-29 19:33N 37°53' E 023°43'0 0.0
2015-Jun-29 18:33N 37°53' E 023°43'0 0.0
2015-Jun-29 17:33N 37°53' E 023°43'0 0.0
2015-Jun-29 16:33N 37°53' E 023°43'0 0.0
2015-Jun-29 15:33N 37°53' E 023°43'0 0.0
2015-Jun-29 14:33N 37°53' E 023°43'0 0.0
2015-Jun-29 13:33N 37°53' E 023°43'0 0.0
2015-Jun-29 12:33N 37°53' E 023°43'0 0.0
2015-Jun-29 11:33N 37°53' E 023°43'0 0.0
2015-Jun-29 10:33N 37°53' E 023°43'0 0.0
2015-Jun-29 09:33N 37°53' E 023°43'0 0.0
2015-Jun-29 08:33N 37°53' E 023°43'0 0.0
2015-Jun-29 07:33N 37°53' E 023°43'0 0.0
2015-Jun-29 06:33N 37°53' E 023°43'0 0.0
2015-Jun-29 05:33N 37°53' E 023°43'0 0.0
2015-Jun-29 04:33N 37°53' E 023°43'0 0.0
2015-Jun-29 03:33N 37°53' E 023°43'0 0.0
2015-Jun-29 02:33N 37°53' E 023°43'0 0.0
2015-Jun-29 01:33N 37°53' E 023°43'0 0.0
2015-Jun-29 00:33N 37°53' E 023°43'0 0.0
2015-Jun-28 23:33N 37°53' E 023°43'0 0.0
2015-Jun-28 22:33N 37°53' E 023°43'0 0.0
2015-Jun-28 21:33N 37°53' E 023°43'0 0.0
2015-Jun-28 20:33N 37°53' E 023°43'0 0.0
2015-Jun-28 19:33N 37°53' E 023°43'0 0.0
2015-Jun-28 18:33N 37°53' E 023°43'0 0.0
2015-Jun-28 17:33N 37°53' E 023°43'0 0.0
2015-Jun-28 16:33N 37°53' E 023°43'0 0.0
2015-Jun-28 15:33N 37°53' E 023°43'0 0.0
2015-Jun-28 14:33N 37°53' E 023°43'0 0.0
2015-Jun-28 13:33N 37°53' E 023°43'0 0.0
2015-Jun-28 12:33N 37°53' E 023°43'0 0.0
2015-Jun-28 11:33N 37°53' E 023°43'0 0.0
2015-Jun-28 10:33N 37°53' E 023°43'0 0.0
2015-Jun-28 09:33N 37°53' E 023°43'0 0.0
2015-Jun-28 08:33N 37°53' E 023°43'58 2.7
2015-Jun-27 11:06N 37°21' E 024°45'713.8
2015-Jun-27 10:34N 37°22' E 024°54'1313.3
2015-Jun-27 09:34N 37°21' E 025°11'5 4.5
2015-Jun-27 08:33N 37°23' E 025°16'0 0.0
2015-Jun-27 07:34N 37°23' E 025°16'0 0.0
2015-Jun-27 06:33N 37°23' E 025°16'2 2.2
2015-Jun-27 05:33N 37°25' E 025°17'3 2.8
2015-Jun-27 04:33N 37°27' E 025°20'0 0.0
2015-Jun-27 03:33N 37°27' E 025°20'0 0.0
2015-Jun-27 02:33N 37°27' E 025°20'0 0.0
2015-Jun-27 01:33N 37°27' E 025°20'0 0.0
2015-Jun-27 00:33N 37°27' E 025°20'0 0.0
2015-Jun-26 23:33N 37°27' E 025°20'0 0.0
2015-Jun-26 22:33N 37°27' E 025°20'0 0.0
2015-Jun-26 21:33N 37°27' E 025°20'0 0.0
2015-Jun-26 20:33N 37°27' E 025°20'0 0.0
2015-Jun-26 19:33N 37°27' E 025°20'0 0.0
2015-Jun-26 18:33N 37°27' E 025°20'0 0.0
2015-Jun-26 17:33N 37°27' E 025°20'0 0.0
2015-Jun-26 16:33N 37°27' E 025°20'0 0.1
2015-Jun-26 15:34N 37°27' E 025°20'8 8.2
2015-Jun-26 14:33N 37°19' E 025°19'1414.0
2015-Jun-26 13:33N 37°05' E 025°20'1 1.4
2015-Jun-26 12:33N 37°04' E 025°21'0 0.0
2015-Jun-26 11:33N 37°04' E 025°21'0 0.0
2015-Jun-26 10:33N 37°04' E 025°21'2 2.4
2015-Jun-26 09:34N 37°06' E 025°22'0 0.1
2015-Jun-26 08:33N 37°06' E 025°22'  
Track history (hours):
 
Tides and Currents Weather Stations Pressure Air Temp Water Temp Dewpoint Dewpoint Depression Visibility Wind Speed Wind Dir Waves Ship Positions

Oneiro

Last reported at 2015-Jul-06 08:19 UTC. Time now 2015-Jul-06 22:13 UTC.
Position N 37°20' E 023°23'.

Length 53 m; draft 3 m.

Type: Pleasure craft. MMSI: 241024000.

Date/timePositionNaut miles runAvg speedWind from/ knotsBaromVisibWave heightAir tempDewpointWater temp
2015-Jul-06 08:19N 37°20' E 023°23'  
2015-Jul-03 07:32N 37°23' E 023°24'8 6.5
2015-Jul-03 06:23N 37°30' E 023°27'0 0.0
2015-Jul-02 15:09N 37°30' E 023°27'64 5.1
2015-Jul-02 02:34N 37°22' E 024°47'9 8.9
2015-Jul-02 01:33N 37°26' E 024°57'0 0.2
2015-Jul-02 00:33N 37°27' E 024°57'0 0.0
2015-Jul-01 23:33N 37°27' E 024°57'0 0.0
2015-Jul-01 22:33N 37°27' E 024°57'0 0.0
2015-Jul-01 21:33N 37°27' E 024°57'0 0.0
2015-Jul-01 20:33N 37°27' E 024°57'0 0.0
2015-Jul-01 19:33N 37°27' E 024°57'0 0.0
2015-Jul-01 18:32N 37°27' E 024°57'0 0.0
2015-Jul-01 17:34N 37°27' E 024°57'5 5.2
2015-Jul-01 16:33N 37°27' E 025°03'1111.2
2015-Jul-01 15:33N 37°25' E 025°17'3 2.6
2015-Jul-01 14:33N 37°25' E 025°20'0 0.0
2015-Jul-01 13:33N 37°25' E 025°20'0 0.0
2015-Jul-01 12:34N 37°25' E 025°20'0 0.0
2015-Jul-01 11:33N 37°25' E 025°20'0 0.0
2015-Jul-01 10:34N 37°25' E 025°20'0 0.0
2015-Jul-01 09:34N 37°25' E 025°20'2 2.4
2015-Jul-01 08:33N 37°27' E 025°20'0 0.0
2015-Jul-01 07:33N 37°27' E 025°20'0 0.0
2015-Jul-01 06:33N 37°27' E 025°20'0 0.1
2015-Jul-01 05:33N 37°27' E 025°20'0 0.0
2015-Jul-01 04:33N 37°27' E 025°20'0 0.0
2015-Jul-01 03:33N 37°27' E 025°20'0 0.0
2015-Jul-01 02:33N 37°27' E 025°20'0 0.0
2015-Jul-01 01:33N 37°27' E 025°20'0 0.0
2015-Jul-01 00:33N 37°27' E 025°20'0 0.0
2015-Jun-30 23:33N 37°27' E 025°20'0 0.0
2015-Jun-30 22:33N 37°27' E 025°20'0 0.0
2015-Jun-30 21:33N 37°27' E 025°20'0 0.0
2015-Jun-30 20:33N 37°27' E 025°20'0 0.0
2015-Jun-30 19:33N 37°27' E 025°20'0 0.0
2015-Jun-30 18:33N 37°27' E 025°20'0 0.0
2015-Jun-30 17:33N 37°27' E 025°20'1111.1
2015-Jun-30 16:33N 37°29' E 025°06'1514.6
2015-Jun-30 15:32N 37°32' E 024°47'2914.4
2015-Jun-30 13:33N 37°33' E 024°11'1414.3
2015-Jun-30 12:33N 37°39' E 023°55'1313.4
2015-Jun-30 11:33N 37°49' E 023°44'4 3.6
2015-Jun-30 10:33N 37°53' E 023°43'0 0.0
2015-Jun-30 09:33N 37°53' E 023°43'0 0.0
2015-Jun-30 08:33N 37°53' E 023°43'0 0.0
2015-Jun-30 07:33N 37°53' E 023°43'0 0.0
2015-Jun-30 06:33N 37°53' E 023°43'0 0.0
2015-Jun-30 05:33N 37°53' E 023°43'0 0.0
2015-Jun-30 04:33N 37°53' E 023°43'0 0.0
2015-Jun-30 03:33N 37°53' E 023°43'0 0.0
2015-Jun-30 02:33N 37°53' E 023°43'0 0.0
2015-Jun-30 01:33N 37°53' E 023°43'0 0.0
2015-Jun-30 00:33N 37°53' E 023°43'0 0.0
2015-Jun-29 23:33N 37°53' E 023°43'0 0.0
2015-Jun-29 22:33N 37°53' E 023°43'0 0.0
2015-Jun-29 21:33N 37°53' E 023°43'0 0.0
2015-Jun-29 20:33N 37°53' E 023°43'0 0.0
2015-Jun-29 19:33N 37°53' E 023°43'0 0.0
2015-Jun-29 18:33N 37°53' E 023°43'0 0.0
2015-Jun-29 17:33N 37°53' E 023°43'0 0.0
2015-Jun-29 16:33N 37°53' E 023°43'0 0.0
2015-Jun-29 15:33N 37°53' E 023°43'0 0.0
2015-Jun-29 14:33N 37°53' E 023°43'0 0.0
2015-Jun-29 13:33N 37°53' E 023°43'0 0.0
2015-Jun-29 12:33N 37°53' E 023°43'0 0.0
2015-Jun-29 11:33N 37°53' E 023°43'0 0.0
2015-Jun-29 10:33N 37°53' E 023°43'0 0.0
2015-Jun-29 09:33N 37°53' E 023°43'0 0.0
2015-Jun-29 08:33N 37°53' E 023°43'0 0.0
2015-Jun-29 07:33N 37°53' E 023°43'0 0.0
2015-Jun-29 06:33N 37°53' E 023°43'0 0.0
2015-Jun-29 05:33N 37°53' E 023°43'0 0.0
2015-Jun-29 04:33N 37°53' E 023°43'0 0.0
2015-Jun-29 03:33N 37°53' E 023°43'0 0.0
2015-Jun-29 02:33N 37°53' E 023°43'0 0.0
2015-Jun-29 01:33N 37°53' E 023°43'0 0.0
2015-Jun-29 00:33N 37°53' E 023°43'0 0.0
2015-Jun-28 23:33N 37°53' E 023°43'0 0.0
2015-Jun-28 22:33N 37°53' E 023°43'0 0.0
2015-Jun-28 21:33N 37°53' E 023°43'0 0.0
2015-Jun-28 20:33N 37°53' E 023°43'0 0.0
2015-Jun-28 19:33N 37°53' E 023°43'0 0.0
2015-Jun-28 18:33N 37°53' E 023°43'0 0.0
2015-Jun-28 17:33N 37°53' E 023°43'0 0.0
2015-Jun-28 16:33N 37°53' E 023°43'0 0.0
2015-Jun-28 15:33N 37°53' E 023°43'0 0.0
2015-Jun-28 14:33N 37°53' E 023°43'0 0.0
2015-Jun-28 13:33N 37°53' E 023°43'0 0.0
2015-Jun-28 12:33N 37°53' E 023°43'0 0.0
2015-Jun-28 11:33N 37°53' E 023°43'0 0.0
2015-Jun-28 10:33N 37°53' E 023°43'0 0.0
2015-Jun-28 09:33N 37°53' E 023°43'0 0.0
2015-Jun-28 08:33N 37°53' E 023°43'58 2.7
2015-Jun-27 11:06N 37°21' E 024°45'713.8
2015-Jun-27 10:34N 37°22' E 024°54'1313.3
2015-Jun-27 09:34N 37°21' E 025°11'5 4.5
2015-Jun-27 08:33N 37°23' E 025°16'0 0.0
2015-Jun-27 07:34N 37°23' E 025°16'0 0.0
2015-Jun-27 06:33N 37°23' E 025°16'2 2.2
2015-Jun-27 05:33N 37°25' E 025°17'3 2.8
2015-Jun-27 04:33N 37°27' E 025°20'0 0.0
2015-Jun-27 03:33N 37°27' E 025°20'0 0.0
2015-Jun-27 02:33N 37°27' E 025°20'0 0.0
2015-Jun-27 01:33N 37°27' E 025°20'0 0.0
2015-Jun-27 00:33N 37°27' E 025°20'0 0.0
2015-Jun-26 23:33N 37°27' E 025°20'0 0.0
2015-Jun-26 22:33N 37°27' E 025°20'0 0.0
2015-Jun-26 21:33N 37°27' E 025°20'0 0.0
2015-Jun-26 20:33N 37°27' E 025°20'0 0.0
2015-Jun-26 19:33N 37°27' E 025°20'0 0.0
2015-Jun-26 18:33N 37°27' E 025°20'0 0.0
2015-Jun-26 17:33N 37°27' E 025°20'0 0.0
2015-Jun-26 16:33N 37°27' E 025°20'0 0.1
2015-Jun-26 15:34N 37°27' E 025°20'8 8.2
2015-Jun-26 14:33N 37°19' E 025°19'1414.0
2015-Jun-26 13:33N 37°05' E 025°20'1 1.4
2015-Jun-26 12:33N 37°04' E 025°21'0 0.0
2015-Jun-26 11:33N 37°04' E 025°21'0 0.0
2015-Jun-26 10:33N 37°04' E 025°21'2 2.4
2015-Jun-26 09:34N 37°06' E 025°22'0 0.1
2015-Jun-26 08:33N 37°06' E 025°22'  

Dump ship's entire track history